createdAt,value
2022-11-04T00:00:03.423Z,976.75
2022-11-04T00:01:03.324Z,976.82
2022-11-04T00:02:03.387Z,976.91
2022-11-04T00:03:03.256Z,977.04
2022-11-04T00:04:03.248Z,977.03
2022-11-04T00:05:03.237Z,977.09
2022-11-04T00:06:03.215Z,977.04
2022-11-04T00:07:03.225Z,977.07
2022-11-04T00:08:03.354Z,977.09
2022-11-04T00:09:03.175Z,977.10
2022-11-04T00:10:03.188Z,977.13
2022-11-04T00:11:03.146Z,977.13
2022-11-04T00:12:03.165Z,977.09
2022-11-04T00:13:03.124Z,977.08
2022-11-04T00:14:03.114Z,977.07
2022-11-04T00:15:03.104Z,977.12
2022-11-04T00:16:03.096Z,977.14
2022-11-04T00:17:03.143Z,977.14
2022-11-04T00:18:03.065Z,977.11
2022-11-04T00:19:03.046Z,977.13
2022-11-04T00:20:03.037Z,977.11
2022-11-04T00:21:03.015Z,977.14
2022-11-04T00:22:03.035Z,977.12
2022-11-04T00:23:03.001Z,977.07
2022-11-04T00:24:02.982Z,977.05
2022-11-04T00:25:02.974Z,977.02
2022-11-04T00:26:02.951Z,976.96
2022-11-04T00:27:02.983Z,976.84
2022-11-04T00:28:02.923Z,976.82
2022-11-04T00:29:02.914Z,976.79
2022-11-04T00:30:02.894Z,976.79
2022-11-04T00:31:02.890Z,976.86
2022-11-04T00:32:02.904Z,976.90
2022-11-04T00:33:02.863Z,976.91
2022-11-04T00:34:03.734Z,976.92
2022-11-04T00:35:02.834Z,976.93
2022-11-04T00:36:02.824Z,976.97
2022-11-04T00:37:02.834Z,977.00
2022-11-04T00:38:02.798Z,977.02
2022-11-04T00:39:02.774Z,977.08
2022-11-04T00:40:02.772Z,977.14
2022-11-04T00:41:02.757Z,977.11
2022-11-04T00:42:02.771Z,977.15
2022-11-04T00:43:02.728Z,977.20
2022-11-04T00:44:02.774Z,977.23
2022-11-04T00:45:02.698Z,977.29
2022-11-04T00:46:02.693Z,977.30
2022-11-04T00:47:02.703Z,977.32
2022-11-04T00:48:02.664Z,977.29
2022-11-04T00:49:03.224Z,977.28
2022-11-04T00:50:02.635Z,977.24
2022-11-04T00:51:02.698Z,977.21
2022-11-04T00:52:02.645Z,977.15
2022-11-04T00:53:02.595Z,977.04
2022-11-04T00:54:02.584Z,976.99
2022-11-04T00:55:02.567Z,976.92
2022-11-04T00:56:02.553Z,976.86
2022-11-04T00:57:02.563Z,976.91
2022-11-04T00:58:02.529Z,976.97
2022-11-04T00:59:02.512Z,977.05
2022-11-04T01:00:02.504Z,977.06
2022-11-04T01:01:02.504Z,977.14
2022-11-04T01:02:02.564Z,977.10
2022-11-04T01:03:02.465Z,977.10
2022-11-04T01:04:02.457Z,977.14
2022-11-04T01:05:02.849Z,977.17
2022-11-04T01:06:02.433Z,977.24
2022-11-04T01:07:02.440Z,977.36
2022-11-04T01:08:02.401Z,977.33
2022-11-04T01:09:02.382Z,977.34
2022-11-04T01:10:02.376Z,977.32
2022-11-04T01:11:02.353Z,977.34
2022-11-04T01:12:02.372Z,977.33
2022-11-04T01:13:02.332Z,977.32
2022-11-04T01:14:02.324Z,977.42
2022-11-04T01:15:02.305Z,977.45
2022-11-04T01:16:02.298Z,977.48
2022-11-04T01:17:02.303Z,977.49
2022-11-04T01:18:02.272Z,977.49
2022-11-04T01:19:02.737Z,977.51
2022-11-04T01:20:02.232Z,977.48
2022-11-04T01:21:02.223Z,977.49
2022-11-04T01:22:02.242Z,977.48
2022-11-04T01:23:02.193Z,977.56
2022-11-04T01:24:02.183Z,977.60
2022-11-04T01:25:02.173Z,977.62
2022-11-04T01:26:02.172Z,977.61
2022-11-04T01:27:02.174Z,977.58
2022-11-04T01:28:02.131Z,977.51
2022-11-04T01:29:02.122Z,977.52
2022-11-04T01:30:02.109Z,977.53
2022-11-04T01:31:02.082Z,977.59
2022-11-04T01:32:02.111Z,977.67
2022-11-04T01:33:02.067Z,977.68
2022-11-04T01:34:02.055Z,977.60
2022-11-04T01:35:02.031Z,977.63
2022-11-04T01:36:02.030Z,977.68
2022-11-04T01:37:02.031Z,977.63
2022-11-04T01:38:02.002Z,977.69
2022-11-04T01:39:01.991Z,977.71
2022-11-04T01:40:01.971Z,977.66
2022-11-04T01:41:01.971Z,977.66
2022-11-04T01:42:01.979Z,977.69
2022-11-04T01:43:01.922Z,977.62
2022-11-04T01:44:01.928Z,977.78
2022-11-04T01:45:01.902Z,977.77
2022-11-04T01:46:01.890Z,977.58
2022-11-04T01:47:01.911Z,977.73
2022-11-04T01:48:01.876Z,977.69
2022-11-04T01:49:01.852Z,977.66
2022-11-04T01:50:01.852Z,977.70
2022-11-04T01:51:01.821Z,977.65
2022-11-04T01:52:01.862Z,977.75
2022-11-04T01:53:01.801Z,977.73
2022-11-04T01:54:01.782Z,977.80
2022-11-04T01:55:01.773Z,977.82
2022-11-04T01:56:01.762Z,977.82
2022-11-04T01:57:01.787Z,977.80
2022-11-04T01:58:01.734Z,977.78
2022-11-04T01:59:01.724Z,977.85
2022-11-04T02:00:01.723Z,977.94
2022-11-04T02:01:01.761Z,977.98
2022-11-04T02:02:02.386Z,977.97
2022-11-04T02:03:01.691Z,977.99
2022-11-04T02:04:01.656Z,977.93
2022-11-04T02:05:01.655Z,977.96
2022-11-04T02:06:01.635Z,977.96
2022-11-04T02:07:01.620Z,977.90
2022-11-04T02:08:01.631Z,977.99
2022-11-04T02:09:01.630Z,978.07
2022-11-04T02:10:01.571Z,978.12
2022-11-04T02:11:01.573Z,978.11
2022-11-04T02:12:01.551Z,978.02
2022-11-04T02:13:01.569Z,978.11
2022-11-04T02:14:01.532Z,978.22
2022-11-04T02:15:01.500Z,978.18
2022-11-04T02:16:01.509Z,978.30
2022-11-04T02:17:01.479Z,978.37
2022-11-04T02:18:01.530Z,978.31
2022-11-04T02:19:01.450Z,978.23
2022-11-04T02:20:01.439Z,978.35
2022-11-04T02:21:01.431Z,978.24
2022-11-04T02:22:01.420Z,978.17
2022-11-04T02:23:01.420Z,978.28
2022-11-04T02:24:02.334Z,978.23
2022-11-04T02:25:01.370Z,978.25
2022-11-04T02:26:01.359Z,978.22
2022-11-04T02:27:01.340Z,978.21
2022-11-04T02:28:01.359Z,978.19
2022-11-04T02:29:01.319Z,978.08
2022-11-04T02:30:01.309Z,977.98
2022-11-04T02:31:01.291Z,978.03
2022-11-04T02:32:01.294Z,977.97
2022-11-04T02:33:01.660Z,977.85
2022-11-04T02:34:01.256Z,977.82
2022-11-04T02:35:01.241Z,977.91
2022-11-04T02:36:01.234Z,977.87
2022-11-04T02:37:01.211Z,977.91
2022-11-04T02:38:01.237Z,978.00
2022-11-04T02:39:01.188Z,977.97
2022-11-04T02:40:01.179Z,978.01
2022-11-04T02:41:01.166Z,978.03
2022-11-04T02:42:01.149Z,977.99
2022-11-04T02:43:01.161Z,977.92
2022-11-04T02:44:01.250Z,977.84
2022-11-04T02:45:01.189Z,977.91
2022-11-04T02:46:01.107Z,978.06
2022-11-04T02:47:01.311Z,978.13
2022-11-04T02:48:01.102Z,978.09
2022-11-04T02:49:01.048Z,978.11
2022-11-04T02:50:01.062Z,978.09
2022-11-04T02:51:01.029Z,978.02
2022-11-04T02:52:01.220Z,978.13
2022-11-04T02:53:01.038Z,978.14
2022-11-04T02:54:01.000Z,978.11
2022-11-04T02:55:01.534Z,978.11
2022-11-04T02:56:00.968Z,978.17
2022-11-04T02:57:01.028Z,978.18
2022-11-04T02:58:01.128Z,978.23
2022-11-04T02:59:01.227Z,978.19
2022-11-04T03:00:00.968Z,978.23
2022-11-04T03:01:01.176Z,978.26
2022-11-04T03:02:01.076Z,978.28
2022-11-04T03:03:00.896Z,978.32
2022-11-04T03:04:01.067Z,978.34
2022-11-04T03:05:00.918Z,978.36
2022-11-04T03:06:00.838Z,978.38
2022-11-04T03:07:01.053Z,978.34
2022-11-04T03:08:01.044Z,978.37
2022-11-04T03:09:00.789Z,978.43
2022-11-04T03:10:00.781Z,978.37
2022-11-04T03:11:00.768Z,978.46
2022-11-04T03:12:00.759Z,978.53
2022-11-04T03:13:00.767Z,978.52
2022-11-04T03:14:00.728Z,978.52
2022-11-04T03:15:00.709Z,978.56
2022-11-04T03:16:00.697Z,978.66
2022-11-04T03:17:00.687Z,978.56
2022-11-04T03:18:00.748Z,978.59
2022-11-04T03:19:00.657Z,978.60
2022-11-04T03:20:00.655Z,978.61
2022-11-04T03:21:00.640Z,978.58
2022-11-04T03:22:00.628Z,978.62
2022-11-04T03:23:00.690Z,978.59
2022-11-04T03:24:00.597Z,978.58
2022-11-04T03:25:00.576Z,978.64
2022-11-04T03:26:00.571Z,978.68
2022-11-04T03:27:00.561Z,978.64
2022-11-04T03:28:00.584Z,978.68
2022-11-04T03:29:00.529Z,978.65
2022-11-04T03:30:02.064Z,978.67
2022-11-04T03:31:00.503Z,978.72
2022-11-04T03:32:00.495Z,978.68
2022-11-04T03:33:00.497Z,978.71
2022-11-04T03:34:00.477Z,978.75
2022-11-04T03:35:00.456Z,978.76
2022-11-04T03:36:00.438Z,978.75
2022-11-04T03:37:01.256Z,978.85
2022-11-04T03:38:00.438Z,978.81
2022-11-04T03:39:00.395Z,978.88
2022-11-04T03:40:00.396Z,978.88
2022-11-04T03:41:00.366Z,978.93
2022-11-04T03:42:00.368Z,978.92
2022-11-04T03:43:00.382Z,978.93
2022-11-04T03:44:00.337Z,978.99
2022-11-04T03:45:00.316Z,978.98
2022-11-04T03:46:00.324Z,978.93
2022-11-04T03:47:00.294Z,978.88
2022-11-04T03:48:00.314Z,978.95
2022-11-04T03:49:00.267Z,978.90
2022-11-04T03:50:00.258Z,978.93
2022-11-04T03:51:00.235Z,978.91
2022-11-04T03:52:00.238Z,978.90
2022-11-04T03:53:00.246Z,978.94
2022-11-04T03:54:00.205Z,978.92
2022-11-04T03:55:00.186Z,978.88
2022-11-04T03:56:00.178Z,978.91
2022-11-04T03:57:00.176Z,978.92
2022-11-04T03:58:00.177Z,978.91
2022-11-04T03:59:00.134Z,978.92
2022-11-04T04:00:00.124Z,978.94
2022-11-04T04:01:00.578Z,979.00
2022-11-04T04:02:00.177Z,979.00
2022-11-04T04:03:00.105Z,979.01
2022-11-04T04:04:00.077Z,978.98
2022-11-04T04:05:00.084Z,979.03
2022-11-04T04:06:00.048Z,979.06
2022-11-04T04:07:00.033Z,979.11
2022-11-04T04:08:00.045Z,979.06
2022-11-04T04:09:00.004Z,979.04
2022-11-04T04:09:59.995Z,979.02
2022-11-04T04:10:59.975Z,979.07
2022-11-04T04:12:00.254Z,979.06
2022-11-04T04:12:59.975Z,979.09
2022-11-04T04:13:59.941Z,979.11
2022-11-04T04:14:59.925Z,979.11
2022-11-04T04:15:59.920Z,979.10
2022-11-04T04:16:59.961Z,979.09
2022-11-04T04:17:59.913Z,979.11
2022-11-04T04:18:59.871Z,979.11
2022-11-04T04:19:59.873Z,979.20
2022-11-04T04:20:59.847Z,979.15
2022-11-04T04:21:59.833Z,979.22
2022-11-04T04:22:59.853Z,979.23
2022-11-04T04:23:59.803Z,979.21
2022-11-04T04:24:59.792Z,979.21
2022-11-04T04:25:59.781Z,979.18
2022-11-04T04:26:59.762Z,979.24
2022-11-04T04:27:59.782Z,979.26
2022-11-04T04:28:59.746Z,979.26
2022-11-04T04:29:59.729Z,979.27
2022-11-04T04:31:00.267Z,979.33
2022-11-04T04:31:59.713Z,979.35
2022-11-04T04:32:59.712Z,979.30
2022-11-04T04:33:59.673Z,979.35
2022-11-04T04:34:59.652Z,979.28
2022-11-04T04:35:59.650Z,979.27
2022-11-04T04:36:59.632Z,979.31
2022-11-04T04:37:59.650Z,979.29
2022-11-04T04:38:59.605Z,979.28
2022-11-04T04:39:59.591Z,979.35
2022-11-04T04:41:59.571Z,979.36
2022-11-04T04:42:59.572Z,979.33
2022-11-04T04:43:59.542Z,979.39
2022-11-04T04:44:59.531Z,979.39
2022-11-04T04:45:59.512Z,979.45
2022-11-04T04:46:59.501Z,979.44
2022-11-04T04:47:59.523Z,979.45
2022-11-04T04:48:59.472Z,979.51
2022-11-04T04:49:59.463Z,979.49
2022-11-04T04:50:59.452Z,979.48
2022-11-04T04:51:59.432Z,979.50
2022-11-04T04:52:59.452Z,979.47
2022-11-04T04:53:59.403Z,979.47
2022-11-04T04:54:59.401Z,979.52
2022-11-04T04:55:59.381Z,979.54
2022-11-04T04:56:59.374Z,979.55
2022-11-04T04:57:59.419Z,979.58
2022-11-04T04:58:59.341Z,979.50
2022-11-04T04:59:59.332Z,979.56
2022-11-04T05:00:59.363Z,979.62
2022-11-04T05:01:59.362Z,979.59
2022-11-04T05:02:59.371Z,979.58
2022-11-04T05:03:59.302Z,979.59
2022-11-04T05:04:59.315Z,979.56
2022-11-04T05:05:59.251Z,979.60
2022-11-04T05:06:59.249Z,979.64
2022-11-04T05:07:59.222Z,979.67
2022-11-04T05:08:59.240Z,979.66
2022-11-04T05:09:59.199Z,979.72
2022-11-04T05:10:59.193Z,979.77
2022-11-04T05:11:59.189Z,979.75
2022-11-04T05:12:59.159Z,979.76
2022-11-04T05:13:59.171Z,979.77
2022-11-04T05:14:59.130Z,979.79
2022-11-04T05:15:59.119Z,979.74
2022-11-04T05:16:59.119Z,979.76
2022-11-04T05:17:59.101Z,979.75
2022-11-04T05:18:59.109Z,979.69
2022-11-04T05:19:59.062Z,979.76
2022-11-04T05:20:59.059Z,979.75
2022-11-04T05:21:59.052Z,979.81
2022-11-04T05:22:59.031Z,979.74
2022-11-04T05:23:59.068Z,979.84
2022-11-04T05:24:59.002Z,979.74
2022-11-04T05:25:58.979Z,979.80
2022-11-04T05:26:58.977Z,979.83
2022-11-04T05:27:58.959Z,979.84
2022-11-04T05:28:58.979Z,979.88
2022-11-04T05:29:58.939Z,979.94
2022-11-04T05:30:59.870Z,979.99
2022-11-04T05:31:58.908Z,979.98
2022-11-04T05:33:01.803Z,979.99
2022-11-04T05:33:59.910Z,980.08
2022-11-04T05:34:58.869Z,980.06
2022-11-04T05:35:58.850Z,980.13
2022-11-04T05:36:58.850Z,980.11
2022-11-04T05:37:58.832Z,980.02
2022-11-04T05:38:58.850Z,980.09
2022-11-04T05:39:58.924Z,980.03
2022-11-04T05:40:58.796Z,980.02
2022-11-04T05:41:58.988Z,980.03
2022-11-04T05:42:58.774Z,980.07
2022-11-04T05:43:58.779Z,980.06
2022-11-04T05:44:58.747Z,980.11
2022-11-04T05:45:58.722Z,980.14
2022-11-04T05:46:58.710Z,980.10
2022-11-04T05:47:58.692Z,980.12
2022-11-04T05:48:58.710Z,980.06
2022-11-04T05:49:58.670Z,979.99
2022-11-04T05:50:58.659Z,979.93
2022-11-04T05:51:58.658Z,979.99
2022-11-04T05:52:58.768Z,980.03
2022-11-04T05:53:58.598Z,980.14
2022-11-04T05:54:58.608Z,980.11
2022-11-04T05:55:58.588Z,980.24
2022-11-04T05:56:58.579Z,980.36
2022-11-04T05:57:58.532Z,980.47
2022-11-04T05:58:58.538Z,980.49
2022-11-04T05:59:58.546Z,980.53
2022-11-04T06:00:58.658Z,980.56
2022-11-04T06:01:58.554Z,980.54
2022-11-04T06:02:58.503Z,980.50
2022-11-04T06:03:58.481Z,980.46
2022-11-04T06:04:58.417Z,980.47
2022-11-04T06:05:58.408Z,980.56
2022-11-04T06:06:58.402Z,980.58
2022-11-04T06:07:58.377Z,980.59
2022-11-04T06:08:58.758Z,980.72
2022-11-04T06:09:58.348Z,980.66
2022-11-04T06:10:58.337Z,980.71
2022-11-04T06:11:58.328Z,980.69
2022-11-04T06:12:58.316Z,980.68
2022-11-04T06:13:58.327Z,980.73
2022-11-04T06:14:58.288Z,980.72
2022-11-04T06:15:58.267Z,980.85
2022-11-04T06:16:58.294Z,980.89
2022-11-04T06:17:59.184Z,980.95
2022-11-04T06:19:01.592Z,980.98
2022-11-04T06:19:59.218Z,981.02
2022-11-04T06:20:58.208Z,981.02
2022-11-04T06:21:58.401Z,981.01
2022-11-04T06:22:58.179Z,980.96
2022-11-04T06:23:58.187Z,981.02
2022-11-04T06:24:58.156Z,981.04
2022-11-04T06:25:58.179Z,981.04
2022-11-04T06:26:58.137Z,981.08
2022-11-04T06:27:58.113Z,981.12
2022-11-04T06:28:58.136Z,981.08
2022-11-04T06:30:02.125Z,981.03
2022-11-04T06:30:58.877Z,981.03
2022-11-04T06:31:58.066Z,980.97
2022-11-04T06:32:58.059Z,981.02
2022-11-04T06:33:58.076Z,981.01
2022-11-04T06:34:58.026Z,980.99
2022-11-04T06:35:58.025Z,981.02
2022-11-04T06:36:57.995Z,981.01
2022-11-04T06:37:57.986Z,980.98
2022-11-04T06:39:04.129Z,981.03
2022-11-04T06:39:58.966Z,981.02
2022-11-04T06:40:58.124Z,981.04
2022-11-04T06:41:59.637Z,981.07
2022-11-04T06:42:57.918Z,981.11
2022-11-04T06:43:58.036Z,981.08
2022-11-04T06:44:58.894Z,981.10
2022-11-04T06:45:57.946Z,981.09
2022-11-04T06:46:57.934Z,981.08
2022-11-04T06:47:58.445Z,981.11
2022-11-04T06:48:57.984Z,981.11
2022-11-04T06:49:57.944Z,981.09
2022-11-04T06:50:57.878Z,981.09
2022-11-04T06:51:57.902Z,981.09
2022-11-04T06:52:57.857Z,981.09
2022-11-04T06:53:57.925Z,980.98
2022-11-04T06:54:57.956Z,981.01
2022-11-04T06:55:57.746Z,980.95
2022-11-04T06:56:57.944Z,980.97
2022-11-04T06:57:57.884Z,980.93
2022-11-04T06:58:57.838Z,980.97
2022-11-04T06:59:57.691Z,980.98
2022-11-04T07:00:57.873Z,980.97
2022-11-04T07:02:00.835Z,980.97
2022-11-04T07:02:58.315Z,980.92
2022-11-04T07:03:57.914Z,980.94
2022-11-04T07:05:57.724Z,981.01
2022-11-04T07:06:57.601Z,981.01
2022-11-04T07:07:57.634Z,980.99
2022-11-04T07:08:57.752Z,980.99
2022-11-04T07:09:57.816Z,980.97
2022-11-04T07:10:57.874Z,981.00
2022-11-04T07:11:57.924Z,981.04
2022-11-04T07:12:57.523Z,981.04
2022-11-04T07:13:57.546Z,981.10
2022-11-04T07:14:58.094Z,981.11
2022-11-04T07:15:57.481Z,981.13
2022-11-04T07:16:57.463Z,981.09
2022-11-04T07:17:58.263Z,981.08
2022-11-04T07:18:57.475Z,981.07
2022-11-04T07:19:57.484Z,981.05
2022-11-04T07:20:57.413Z,981.03
2022-11-04T07:21:57.404Z,981.07
2022-11-04T07:22:57.412Z,981.11
2022-11-04T07:23:57.404Z,981.07
2022-11-04T07:24:57.363Z,981.10
2022-11-04T07:25:57.343Z,981.12
2022-11-04T07:26:57.405Z,981.12
2022-11-04T07:28:01.096Z,981.19
2022-11-04T07:28:58.334Z,981.22
2022-11-04T07:29:57.293Z,981.11
2022-11-04T07:30:57.274Z,981.10
2022-11-04T07:31:57.484Z,981.14
2022-11-04T07:32:57.760Z,981.14
2022-11-04T07:33:57.512Z,981.10
2022-11-04T07:34:57.366Z,981.12
2022-11-04T07:35:58.573Z,981.17
2022-11-04T07:36:57.213Z,981.19
2022-11-04T07:37:57.183Z,981.20
2022-11-04T07:38:57.299Z,981.19
2022-11-04T07:39:57.163Z,981.18
2022-11-04T07:40:57.162Z,981.11
2022-11-04T07:41:59.576Z,981.15
2022-11-04T07:42:57.130Z,981.19
2022-11-04T07:43:57.241Z,981.17
2022-11-04T07:44:57.098Z,981.16
2022-11-04T07:45:57.183Z,981.22
2022-11-04T07:46:57.660Z,981.30
2022-11-04T07:47:57.060Z,981.26
2022-11-04T07:48:57.072Z,981.30
2022-11-04T07:49:59.364Z,981.28
2022-11-04T07:50:57.147Z,981.31
2022-11-04T07:51:57.564Z,981.29
2022-11-04T07:52:57.023Z,981.32
2022-11-04T07:53:57.112Z,981.34
2022-11-04T07:54:57.883Z,981.34
2022-11-04T07:55:57.041Z,981.33
2022-11-04T07:56:57.392Z,981.32
2022-11-04T07:57:56.921Z,981.36
2022-11-04T07:58:56.942Z,981.31
2022-11-04T07:59:57.682Z,981.38
2022-11-04T08:00:56.972Z,981.37
2022-11-04T08:01:57.039Z,981.43
2022-11-04T08:02:56.929Z,981.44
2022-11-04T08:03:56.871Z,981.43
2022-11-04T08:04:56.991Z,981.44
2022-11-04T08:05:56.961Z,981.42
2022-11-04T08:06:56.881Z,981.39
2022-11-04T08:07:56.842Z,981.48
2022-11-04T08:08:56.915Z,981.45
2022-11-04T08:09:56.762Z,981.39
2022-11-04T08:10:56.782Z,981.39
2022-11-04T08:11:56.746Z,981.43
2022-11-04T08:12:56.722Z,981.39
2022-11-04T08:13:56.861Z,981.40
2022-11-04T08:14:56.700Z,981.41
2022-11-04T08:15:56.699Z,981.44
2022-11-04T08:16:56.681Z,981.46
2022-11-04T08:17:56.663Z,981.46
2022-11-04T08:18:56.670Z,981.51
2022-11-04T08:19:57.420Z,981.56
2022-11-04T08:20:56.648Z,981.53
2022-11-04T08:21:56.611Z,981.59
2022-11-04T08:22:56.634Z,981.54
2022-11-04T08:23:56.611Z,981.54
2022-11-04T08:24:56.577Z,981.59
2022-11-04T08:25:56.554Z,981.53
2022-11-04T08:26:56.540Z,981.53
2022-11-04T08:28:00.674Z,981.58
2022-11-04T08:28:56.554Z,981.57
2022-11-04T08:29:56.493Z,981.56
2022-11-04T08:30:56.507Z,981.58
2022-11-04T08:31:56.483Z,981.60
2022-11-04T08:32:56.461Z,981.64
2022-11-04T08:33:56.463Z,981.60
2022-11-04T08:34:56.437Z,981.64
2022-11-04T08:35:56.411Z,981.69
2022-11-04T08:36:56.701Z,981.67
2022-11-04T08:37:56.391Z,981.72
2022-11-04T08:38:56.698Z,981.73
2022-11-04T08:39:56.360Z,981.77
2022-11-04T08:40:59.772Z,981.75
2022-11-04T08:41:57.287Z,981.75
2022-11-04T08:42:56.396Z,981.78
2022-11-04T08:43:56.330Z,981.80
2022-11-04T08:44:56.559Z,981.77
2022-11-04T08:45:56.279Z,981.79
2022-11-04T08:46:56.271Z,981.78
2022-11-04T08:47:59.097Z,981.74
2022-11-04T08:48:57.276Z,981.72
2022-11-04T08:49:56.233Z,981.79
2022-11-04T08:50:56.223Z,981.79
2022-11-04T08:51:56.252Z,981.73
2022-11-04T08:52:56.198Z,981.72
2022-11-04T08:53:56.209Z,981.72
2022-11-04T08:54:57.407Z,981.71
2022-11-04T08:55:56.150Z,981.71
2022-11-04T08:56:56.139Z,981.76
2022-11-04T08:57:56.119Z,981.75
2022-11-04T08:58:56.140Z,981.80
2022-11-04T08:59:56.140Z,981.84
2022-11-04T09:00:56.089Z,981.82
2022-11-04T09:01:56.160Z,981.85
2022-11-04T09:02:56.070Z,981.84
2022-11-04T09:03:56.116Z,981.82
2022-11-04T09:04:56.036Z,981.84
2022-11-04T09:05:56.019Z,981.82
2022-11-04T09:06:56.008Z,981.81
2022-11-04T09:07:55.988Z,981.82
2022-11-04T09:08:56.009Z,981.81
2022-11-04T09:09:55.979Z,981.85
2022-11-04T09:10:56.010Z,981.81
2022-11-04T09:11:55.959Z,981.78
2022-11-04T09:12:55.928Z,981.79
2022-11-04T09:13:56.218Z,981.82
2022-11-04T09:14:56.167Z,981.79
2022-11-04T09:15:56.229Z,981.76
2022-11-04T09:16:56.178Z,981.84
2022-11-04T09:17:55.876Z,981.81
2022-11-04T09:18:55.878Z,981.76
2022-11-04T09:19:55.838Z,981.77
2022-11-04T09:20:55.819Z,981.77
2022-11-04T09:21:56.050Z,981.83
2022-11-04T09:22:55.800Z,981.86
2022-11-04T09:23:55.825Z,981.77
2022-11-04T09:24:56.159Z,981.85
2022-11-04T09:25:55.763Z,981.84
2022-11-04T09:26:55.739Z,981.82
2022-11-04T09:27:55.730Z,981.82
2022-11-04T09:28:55.749Z,981.84
2022-11-04T09:29:55.719Z,981.85
2022-11-04T09:30:55.691Z,981.90
2022-11-04T09:31:55.699Z,981.91
2022-11-04T09:32:55.658Z,981.92
2022-11-04T09:33:55.686Z,981.88
2022-11-04T09:34:55.639Z,981.88
2022-11-04T09:35:55.629Z,981.85
2022-11-04T09:36:55.608Z,981.85
2022-11-04T09:37:55.599Z,981.84
2022-11-04T09:38:55.617Z,981.81
2022-11-04T09:39:55.655Z,981.81
2022-11-04T09:40:55.559Z,981.81
2022-11-04T09:41:55.560Z,981.82
2022-11-04T09:42:55.738Z,981.76
2022-11-04T09:43:55.548Z,981.80
2022-11-04T09:45:56.500Z,981.81
2022-11-04T09:46:55.497Z,981.76
2022-11-04T09:47:55.477Z,981.77
2022-11-04T09:48:55.480Z,981.80
2022-11-04T09:49:55.676Z,981.76
2022-11-04T09:50:55.458Z,981.72
2022-11-04T09:51:56.088Z,981.78
2022-11-04T09:52:55.419Z,981.74
2022-11-04T09:53:55.418Z,981.73
2022-11-04T09:54:55.368Z,981.70
2022-11-04T09:55:55.369Z,981.70
2022-11-04T09:56:55.346Z,981.73
2022-11-04T09:57:55.401Z,981.76
2022-11-04T09:58:55.350Z,981.74
2022-11-04T09:59:55.321Z,981.75
2022-11-04T10:00:55.319Z,981.75
2022-11-04T10:01:55.379Z,981.71
2022-11-04T10:02:55.378Z,981.73
2022-11-04T10:03:55.398Z,981.71
2022-11-04T10:04:56.186Z,981.74
2022-11-04T10:05:55.228Z,981.76
2022-11-04T10:06:55.326Z,981.76
2022-11-04T10:07:55.311Z,981.74
2022-11-04T10:08:55.270Z,981.75
2022-11-04T10:09:55.179Z,981.85
2022-11-04T10:10:55.169Z,981.88
2022-11-04T10:11:55.160Z,981.90
2022-11-04T10:12:55.139Z,981.91
2022-11-04T10:13:55.148Z,981.90
2022-11-04T10:14:55.168Z,981.89
2022-11-04T10:15:55.229Z,981.88
2022-11-04T10:16:55.267Z,981.91
2022-11-04T10:17:56.439Z,981.86
2022-11-04T10:18:56.696Z,981.86
2022-11-04T10:19:55.060Z,981.89
2022-11-04T10:20:59.189Z,981.81
2022-11-04T10:21:55.715Z,981.91
2022-11-04T10:22:55.187Z,981.93
2022-11-04T10:23:55.928Z,981.95
2022-11-04T10:24:55.840Z,981.96
2022-11-04T10:25:55.085Z,981.97
2022-11-04T10:27:00.129Z,981.98
2022-11-04T10:27:56.658Z,981.96
2022-11-04T10:28:54.956Z,981.99
2022-11-04T10:29:54.947Z,981.94
2022-11-04T10:30:55.898Z,982.01
2022-11-04T10:31:54.988Z,981.99
2022-11-04T10:32:54.991Z,981.97
2022-11-04T10:33:55.063Z,981.95
2022-11-04T10:34:54.838Z,981.98
2022-11-04T10:35:54.828Z,981.97
2022-11-04T10:36:54.816Z,981.99
2022-11-04T10:37:54.807Z,982.02
2022-11-04T10:38:54.888Z,982.02
2022-11-04T10:39:54.779Z,982.02
2022-11-04T10:40:54.857Z,982.06
2022-11-04T10:41:54.759Z,982.13
2022-11-04T10:42:54.745Z,982.15
2022-11-04T10:43:54.758Z,982.07
2022-11-04T10:44:54.828Z,982.12
2022-11-04T10:45:54.698Z,982.16
2022-11-04T10:46:54.680Z,982.15
2022-11-04T10:47:54.757Z,982.21
2022-11-04T10:48:54.688Z,982.19
2022-11-04T10:50:26.434Z,982.22
2022-11-04T10:50:55.698Z,982.24
2022-11-04T10:51:54.628Z,982.20
2022-11-04T10:52:54.605Z,982.18
2022-11-04T10:53:54.625Z,982.24
2022-11-04T10:54:54.578Z,982.18
2022-11-04T10:55:54.569Z,982.18
2022-11-04T10:56:54.621Z,982.15
2022-11-04T10:57:54.537Z,982.18
2022-11-04T10:58:54.558Z,982.19
2022-11-04T10:59:54.517Z,982.16
2022-11-04T11:00:54.673Z,982.12
2022-11-04T11:01:54.625Z,982.12
2022-11-04T11:02:54.475Z,982.09
2022-11-04T11:03:54.471Z,982.09
2022-11-04T11:04:54.479Z,982.14
2022-11-04T11:05:54.486Z,982.16
2022-11-04T11:06:54.433Z,982.17
2022-11-04T11:07:54.408Z,982.19
2022-11-04T11:08:54.388Z,982.23
2022-11-04T11:09:58.544Z,982.30
2022-11-04T11:10:54.463Z,982.31
2022-11-04T11:11:54.359Z,982.34
2022-11-04T11:12:54.337Z,982.34
2022-11-04T11:13:58.417Z,982.39
2022-11-04T11:14:57.378Z,982.37
2022-11-04T11:15:55.049Z,982.35
2022-11-04T11:16:54.289Z,982.31
2022-11-04T11:17:54.278Z,982.25
2022-11-04T11:18:54.258Z,982.21
2022-11-04T11:19:54.278Z,982.22
2022-11-04T11:20:54.238Z,982.20
2022-11-04T11:21:54.367Z,982.19
2022-11-04T11:22:54.234Z,982.18
2022-11-04T11:23:54.340Z,982.17
2022-11-04T11:24:54.228Z,982.20
2022-11-04T11:25:54.171Z,982.21
2022-11-04T11:26:54.230Z,982.18
2022-11-04T11:27:54.148Z,982.20
2022-11-04T11:28:58.603Z,982.18
2022-11-04T11:29:55.338Z,982.15
2022-11-04T11:30:54.178Z,982.19
2022-11-04T11:31:54.278Z,982.14
2022-11-04T11:32:54.157Z,982.13
2022-11-04T11:33:57.407Z,982.11
2022-11-04T11:34:54.588Z,982.15
2022-11-04T11:35:54.258Z,982.11
2022-11-04T11:36:54.221Z,982.07
2022-11-04T11:37:54.098Z,982.09
2022-11-04T11:38:59.087Z,982.12
2022-11-04T11:39:54.148Z,982.12
2022-11-04T11:41:18.775Z,982.08
2022-11-04T11:41:55.140Z,982.03
2022-11-04T11:42:56.512Z,982.04
2022-11-04T11:43:54.032Z,982.02
2022-11-04T11:44:54.141Z,982.05
2022-11-04T11:45:53.978Z,981.98
2022-11-04T11:46:54.019Z,981.91
2022-11-04T11:47:54.119Z,981.94
2022-11-04T11:48:54.528Z,981.90
2022-11-04T11:49:54.115Z,981.92
2022-11-04T11:50:54.011Z,981.91
2022-11-04T11:51:54.507Z,981.99
2022-11-04T11:52:53.824Z,981.96
2022-11-04T11:53:53.958Z,981.95
2022-11-04T11:54:57.808Z,981.92
2022-11-04T11:55:53.958Z,981.99
2022-11-04T12:01:02.098Z,982.00
2022-11-04T12:01:57.328Z,982.00
2022-11-04T12:02:53.846Z,982.02
2022-11-04T12:09:54.614Z,982.11
2022-11-04T12:10:53.605Z,982.11
2022-11-04T12:11:53.568Z,982.09
2022-11-04T12:12:53.539Z,982.13
2022-11-04T12:13:53.528Z,982.11
2022-11-04T12:14:53.538Z,982.05
2022-11-04T12:15:53.748Z,982.04
2022-11-04T12:16:53.614Z,982.07
2022-11-04T12:17:53.483Z,982.08
2022-11-04T12:18:53.520Z,982.09
2022-11-04T12:19:53.479Z,982.08
2022-11-04T12:20:53.451Z,982.13
2022-11-04T12:21:53.804Z,982.18
2022-11-04T12:22:53.412Z,982.16
2022-11-04T12:23:53.404Z,982.12
2022-11-04T12:24:53.409Z,982.11
2022-11-04T12:25:53.449Z,982.13
2022-11-04T12:26:53.360Z,982.14
2022-11-04T12:27:53.339Z,982.20
2022-11-04T12:28:53.439Z,982.20
2022-11-04T12:29:53.338Z,982.20
2022-11-04T12:30:53.299Z,982.26
2022-11-04T12:31:53.301Z,982.19
2022-11-04T12:32:53.285Z,982.20
2022-11-04T12:33:53.259Z,982.19
2022-11-04T12:34:53.273Z,982.26
2022-11-04T12:35:53.238Z,982.34
2022-11-04T12:36:53.403Z,982.33
2022-11-04T12:37:53.211Z,982.34
2022-11-04T12:38:53.424Z,982.36
2022-11-04T12:39:53.210Z,982.31
2022-11-04T12:41:18.801Z,982.34